createdAt,value
2023-01-30T00:00:13.036Z,-1.35
2023-01-30T00:02:41.899Z,-1.15
2023-01-30T00:05:10.245Z,-1.13
2023-01-30T00:07:38.501Z,-1.54
2023-01-30T00:10:07.095Z,-1.14
2023-01-30T00:12:35.692Z,-1.17
2023-01-30T00:15:04.801Z,-1.21
2023-01-30T00:17:32.969Z,-1.11
2023-01-30T00:20:01.263Z,-1.12
2023-01-30T00:22:30.347Z,-1.41
2023-01-30T00:24:58.416Z,-1.24
2023-01-30T00:27:26.521Z,-1.18
2023-01-30T00:30:02.837Z,-1.15
2023-01-30T00:32:32.565Z,-1.13
2023-01-30T00:35:00.771Z,-1.13
2023-01-30T00:37:29.553Z,-1.13
2023-01-30T00:39:58.916Z,-1.50
2023-01-30T00:42:47.548Z,-1.44
2023-01-30T00:45:34.297Z,-1.18
2023-01-30T00:48:03.929Z,-1.21
2023-01-30T00:50:42.648Z,-1.28
2023-01-30T00:53:16.440Z,-1.25
2023-01-30T00:55:45.738Z,-1.48
2023-01-30T00:58:14.144Z,-1.55
2023-01-30T01:00:42.548Z,-1.21
2023-01-30T01:03:10.761Z,-1.19
2023-01-30T01:05:38.698Z,-1.27
2023-01-30T01:08:07.765Z,-1.21
2023-01-30T01:10:36.033Z,-1.19
2023-01-30T01:13:06.653Z,-1.19
2023-01-30T01:15:35.495Z,-1.20
2023-01-30T01:18:03.780Z,-1.21
2023-01-30T01:20:32.567Z,-1.50
2023-01-30T01:23:00.996Z,-1.64
2023-01-30T01:25:29.213Z,-1.15
2023-01-30T01:27:57.213Z,-1.17
2023-01-30T01:30:25.399Z,-1.20
2023-01-30T01:32:53.388Z,-1.12
2023-01-30T01:35:21.426Z,-1.09
2023-01-30T01:37:54.746Z,-1.12
2023-01-30T01:40:42.340Z,-1.10
2023-01-30T01:43:22.724Z,-1.40
2023-01-30T01:46:18.507Z,-1.45
2023-01-30T01:48:53.800Z,-1.20
2023-01-30T01:51:42.705Z,-1.09
2023-01-30T01:54:18.626Z,-1.48
2023-01-30T01:56:48.696Z,-1.37
2023-01-30T01:59:53.513Z,-1.25
2023-01-30T02:02:22.038Z,-1.54
2023-01-30T02:05:03.740Z,-1.45
2023-01-30T02:07:55.027Z,-1.09
2023-01-30T02:10:52.023Z,-1.12
2023-01-30T02:13:20.200Z,-1.11
2023-01-30T02:15:50.395Z,-1.11
2023-01-30T02:18:19.551Z,-1.19
2023-01-30T02:21:48.710Z,-1.12
2023-01-30T02:25:08.293Z,-1.14
2023-01-30T02:27:59.973Z,-1.45
2023-01-30T02:30:34.444Z,-1.13
2023-01-30T02:33:19.624Z,-1.12
2023-01-30T02:35:57.379Z,-1.14
2023-01-30T02:38:39.917Z,-1.15
2023-01-30T02:41:20.142Z,-1.12
2023-01-30T02:44:11.772Z,-1.13
2023-01-30T02:47:04.136Z,-1.13
2023-01-30T02:49:56.285Z,-1.15
2023-01-30T02:52:27.777Z,-1.09
2023-01-30T02:54:55.818Z,-1.40
2023-01-30T02:57:26.524Z,-1.37
2023-01-30T03:00:04.416Z,-1.21
2023-01-30T03:03:15.776Z,-1.41
2023-01-30T03:06:11.582Z,-1.12
2023-01-30T03:08:51.392Z,-1.11
2023-01-30T03:11:25.081Z,-1.11
2023-01-30T03:14:02.720Z,-1.11
2023-01-30T03:16:41.076Z,-1.15
2023-01-30T03:19:13.943Z,-1.13
2023-01-30T03:21:46.169Z,-1.17
2023-01-30T03:24:15.028Z,-1.24
2023-01-30T03:26:59.954Z,-1.43
2023-01-30T03:29:28.223Z,-1.21
2023-01-30T03:31:56.494Z,-1.40
2023-01-30T03:34:24.766Z,-1.27
2023-01-30T03:36:52.794Z,-1.48
2023-01-30T03:39:21.571Z,-1.44
2023-01-30T03:41:50.363Z,-1.49
2023-01-30T03:44:19.119Z,-1.17
2023-01-30T03:46:47.160Z,-1.40
2023-01-30T03:49:15.388Z,-1.21
2023-01-30T03:51:43.299Z,-1.24
2023-01-30T03:54:11.215Z,-1.59
2023-01-30T03:56:39.743Z,-1.50
2023-01-30T03:59:08.715Z,-1.80
2023-01-30T04:01:42.578Z,-1.41
2023-01-30T04:04:11.457Z,-1.38
2023-01-30T04:06:39.398Z,-1.33
2023-01-30T04:09:07.876Z,-1.67
2023-01-30T04:11:43.744Z,-1.30
2023-01-30T04:14:12.590Z,-1.69
2023-01-30T04:17:06.836Z,-1.53
2023-01-30T04:19:58.208Z,-1.32
2023-01-30T04:22:26.991Z,-1.29
2023-01-30T04:24:54.934Z,-1.66
2023-01-30T04:27:22.993Z,-1.28
2023-01-30T04:30:11.788Z,-1.70
2023-01-30T04:32:40.711Z,-2.24
2023-01-30T04:35:10.867Z,-1.35
2023-01-30T04:37:40.025Z,-2.67
2023-01-30T04:40:10.660Z,-1.44
2023-01-30T04:42:39.047Z,-1.42
2023-01-30T04:45:30.479Z,-1.48
2023-01-30T04:47:58.685Z,-1.49
2023-01-30T04:50:26.968Z,-1.48
2023-01-30T04:52:55.023Z,-1.51
2023-01-30T04:55:22.925Z,-1.51
2023-01-30T04:57:50.857Z,-1.77
2023-01-30T05:00:19.496Z,-1.47
2023-01-30T05:02:55.864Z,-1.46
2023-01-30T05:05:25.453Z,-1.44
2023-01-30T05:07:54.348Z,-1.47
2023-01-30T05:10:22.507Z,-1.74
2023-01-30T05:12:51.035Z,-1.98
2023-01-30T05:15:19.423Z,-1.49
2023-01-30T05:17:47.662Z,-1.36
2023-01-30T05:20:16.274Z,-1.37
2023-01-30T05:22:44.271Z,-1.37
2023-01-30T05:25:12.360Z,-1.34
2023-01-30T05:27:40.687Z,-1.71
2023-01-30T05:30:09.868Z,-1.37
2023-01-30T05:32:37.792Z,-1.49
2023-01-30T05:35:06.855Z,-1.74
2023-01-30T05:37:34.847Z,-1.46
2023-01-30T05:40:02.975Z,-1.43
2023-01-30T05:42:31.833Z,-1.75
2023-01-30T05:44:59.778Z,-1.64
2023-01-30T05:47:27.849Z,-1.49
2023-01-30T05:49:56.110Z,-1.43
2023-01-30T05:52:23.986Z,-1.47
2023-01-30T05:54:51.983Z,-1.82
2023-01-30T05:57:20.281Z,-1.37
2023-01-30T05:59:48.518Z,-1.42
2023-01-30T06:02:16.501Z,-1.42
2023-01-30T06:04:44.713Z,-1.41
2023-01-30T06:07:14.237Z,-1.77
2023-01-30T06:09:42.375Z,-1.41
2023-01-30T06:12:10.769Z,-1.33
2023-01-30T06:14:38.964Z,-1.49
2023-01-30T06:17:07.538Z,-1.66
2023-01-30T06:19:35.851Z,-1.60
2023-01-30T06:22:03.812Z,-2.39
2023-01-30T06:24:31.840Z,-1.27
2023-01-30T06:27:00.595Z,-1.30
2023-01-30T06:29:28.763Z,-1.28
2023-01-30T06:31:56.757Z,-1.66
2023-01-30T06:34:25.155Z,-1.58
2023-01-30T06:36:53.174Z,-1.29
2023-01-30T06:39:21.180Z,-1.23
2023-01-30T06:41:49.591Z,-1.18
2023-01-30T06:44:18.377Z,-1.29
2023-01-30T06:46:46.359Z,-1.21
2023-01-30T06:49:14.559Z,-1.54
2023-01-30T06:51:42.532Z,-1.12
2023-01-30T06:54:10.562Z,-1.53
2023-01-30T06:56:38.712Z,-1.09
2023-01-30T06:59:06.701Z,-1.11
2023-01-30T07:01:34.791Z,-1.14
2023-01-30T07:04:03.957Z,-1.29
2023-01-30T07:06:32.332Z,-1.14
2023-01-30T07:09:00.268Z,-1.17
2023-01-30T07:11:29.202Z,-1.14
2023-01-30T07:13:58.054Z,-1.53
2023-01-30T07:16:29.888Z,-1.51
2023-01-30T07:18:59.008Z,-1.29
2023-01-30T07:21:27.729Z,-1.35
2023-01-30T07:23:55.865Z,-1.23
2023-01-30T07:26:25.230Z,-1.23
2023-01-30T07:28:53.390Z,-1.37
2023-01-30T07:31:21.835Z,-1.26
2023-01-30T07:33:50.232Z,-1.61
2023-01-30T07:36:18.189Z,-1.38
2023-01-30T07:38:49.816Z,-1.43
2023-01-30T07:41:18.053Z,-1.29
2023-01-30T07:43:46.282Z,-1.25
2023-01-30T07:46:14.393Z,-1.23
2023-01-30T07:48:45.790Z,-1.23
2023-01-30T07:51:14.034Z,-1.12
2023-01-30T07:53:42.098Z,-1.41
2023-01-30T07:56:14.471Z,-1.58
2023-01-30T07:58:42.419Z,-1.25
2023-01-30T08:01:10.539Z,-1.25
2023-01-30T08:03:38.681Z,-1.59
2023-01-30T08:06:07.783Z,-1.76
2023-01-30T08:08:36.098Z,-1.34
2023-01-30T08:11:04.661Z,-1.77
2023-01-30T08:13:35.774Z,-1.35
2023-01-30T08:16:06.680Z,-1.65
2023-01-30T08:18:35.925Z,-1.57
2023-01-30T08:21:07.265Z,-1.56
2023-01-30T08:23:38.629Z,-1.13
2023-01-30T08:26:06.718Z,-1.15
2023-01-30T08:28:34.770Z,-1.15
2023-01-30T08:31:02.937Z,-2.12
2023-01-30T08:33:30.985Z,-1.28
2023-01-30T08:36:00.626Z,-1.13
2023-01-30T08:38:28.831Z,-1.44
2023-01-30T08:40:58.118Z,-1.17
2023-01-30T08:43:26.972Z,-1.04
2023-01-30T08:45:57.146Z,-1.09
2023-01-30T08:48:25.502Z,-1.38
2023-01-30T08:50:55.502Z,-1.12
2023-01-30T08:53:24.015Z,-1.17
2023-01-30T08:55:53.725Z,-1.26
2023-01-30T08:58:22.724Z,-1.00
2023-01-30T09:00:51.008Z,-0.89
2023-01-30T09:03:19.936Z,-0.90
2023-01-30T09:05:48.531Z,-0.90
2023-01-30T09:08:16.862Z,-0.87
2023-01-30T09:10:44.995Z,-1.19
2023-01-30T09:13:13.254Z,-0.95
2023-01-30T09:15:45.648Z,-1.09
2023-01-30T09:18:13.791Z,-1.46
2023-01-30T09:20:41.767Z,-1.13
2023-01-30T09:23:09.861Z,-1.09
2023-01-30T09:25:38.252Z,-1.12
2023-01-30T09:28:06.315Z,-1.00
2023-01-30T09:30:34.923Z,-1.23
2023-01-30T09:33:04.107Z,-0.97
2023-01-30T09:35:32.467Z,-1.01
2023-01-30T09:38:01.639Z,-1.01
2023-01-30T09:40:32.916Z,-1.00
2023-01-30T09:43:48.761Z,-1.26
2023-01-30T09:46:29.460Z,-0.81
2023-01-30T09:49:26.691Z,-1.08
2023-01-30T09:52:09.879Z,-0.70
2023-01-30T09:54:43.307Z,-1.02
2023-01-30T09:57:22.686Z,-0.66
2023-01-30T09:59:58.453Z,-0.66
2023-01-30T10:02:41.814Z,-0.59
2023-01-30T10:05:10.542Z,-0.55
2023-01-30T10:08:14.960Z,-0.62
2023-01-30T10:11:10.454Z,-0.58
2023-01-30T10:14:08.287Z,-0.57
2023-01-30T10:17:45.536Z,-0.53
2023-01-30T10:20:32.309Z,-0.74
2023-01-30T10:23:38.223Z,-0.57
2023-01-30T10:26:23.219Z,-0.55
2023-01-30T10:29:07.423Z,-0.62
2023-01-30T10:31:56.862Z,-0.92
2023-01-30T10:34:37.172Z,-0.59
2023-01-30T10:37:33.175Z,-0.55
2023-01-30T10:40:43.047Z,-0.84
2023-01-30T10:43:37.286Z,-0.53
2023-01-30T10:46:56.974Z,-0.62
2023-01-30T10:49:44.595Z,-0.66
2023-01-30T10:52:38.570Z,-0.64
2023-01-30T10:55:37.589Z,-0.73
2023-01-30T10:58:26.613Z,-0.68
2023-01-30T11:01:53.774Z,-0.80
2023-01-30T11:04:42.580Z,-1.12
2023-01-30T11:07:12.034Z,-0.86
2023-01-30T11:09:46.685Z,-0.92
2023-01-30T11:12:16.078Z,-0.84
2023-01-30T11:15:16.725Z,-0.92
2023-01-30T11:17:46.073Z,-1.43
2023-01-30T11:20:24.665Z,-1.19
2023-01-30T11:23:07.650Z,-1.14
2023-01-30T11:26:10.472Z,-1.23
2023-01-30T11:28:48.660Z,-1.13
2023-01-30T11:31:40.508Z,-1.27
2023-01-30T11:34:16.999Z,-1.21
2023-01-30T11:36:48.675Z,-1.29
2023-01-30T11:39:18.793Z,-1.26
2023-01-30T11:42:03.807Z,-1.88
2023-01-30T11:44:40.610Z,-1.36
2023-01-30T11:47:27.761Z,-1.52
2023-01-30T11:50:07.538Z,-1.38
2023-01-30T11:52:50.557Z,-2.21
2023-01-30T11:55:21.000Z,-1.38
2023-01-30T11:57:56.313Z,-1.33
2023-01-30T12:00:38.954Z,-1.38
2023-01-30T12:03:18.271Z,-1.31
2023-01-30T12:05:48.564Z,-1.31
2023-01-30T12:08:31.184Z,-1.62
2023-01-30T12:11:07.830Z,-1.33
2023-01-30T12:13:43.673Z,-1.26
2023-01-30T12:16:25.667Z,-1.13
2023-01-30T12:19:19.156Z,-1.10
2023-01-30T12:21:59.316Z,-1.05
2023-01-30T12:25:27.474Z,-1.43
2023-01-30T12:28:20.307Z,-1.08
2023-01-30T12:31:24.853Z,-1.48
2023-01-30T12:33:55.749Z,-1.06
2023-01-30T12:36:38.825Z,-1.54
2023-01-30T12:39:47.961Z,-1.12
2023-01-30T12:42:48.525Z,-1.06
2023-01-30T12:45:41.326Z,-1.13
2023-01-30T12:48:13.110Z,-1.12
2023-01-30T12:51:04.008Z,-1.12
2023-01-30T12:53:50.681Z,-1.16
2023-01-30T12:56:41.398Z,-1.18
2023-01-30T12:59:21.646Z,-1.13
2023-01-30T13:02:29.727Z,-1.11
2023-01-30T13:05:33.802Z,-1.05
2023-01-30T13:08:34.122Z,-1.07
2023-01-30T13:11:41.561Z,-1.03
2023-01-30T13:14:21.762Z,-1.01
2023-01-30T13:17:20.698Z,-0.99
2023-01-30T13:20:18.069Z,-1.00
2023-01-30T13:23:13.231Z,-1.06
2023-01-30T13:26:06.016Z,-1.35
2023-01-30T13:28:44.729Z,-1.00
2023-01-30T13:31:18.941Z,-1.05
2023-01-30T13:33:51.306Z,-1.01
2023-01-30T13:36:44.995Z,-1.33
2023-01-30T13:39:54.668Z,-1.00
2023-01-30T13:42:26.540Z,-1.01
2023-01-30T13:44:56.360Z,-1.36
2023-01-30T13:47:55.072Z,-0.99
2023-01-30T13:51:06.151Z,-0.96
2023-01-30T13:54:13.069Z,-0.97
2023-01-30T13:57:38.215Z,-0.96
2023-01-30T14:00:35.313Z,-0.94
2023-01-30T14:03:06.924Z,-0.94
2023-01-30T14:06:01.269Z,-0.93
2023-01-30T14:08:48.656Z,-0.94
2023-01-30T14:11:40.663Z,-0.93
2023-01-30T14:14:40.835Z,-0.97
2023-01-30T14:17:16.697Z,-0.95
2023-01-30T14:19:57.393Z,-1.04
2023-01-30T14:22:25.887Z,-0.90
2023-01-30T14:25:30.878Z,-0.87
2023-01-30T14:28:01.977Z,-0.83
2023-01-30T14:30:48.724Z,-1.28
2023-01-30T14:33:22.656Z,-0.75
2023-01-30T14:36:03.224Z,-0.72
2023-01-30T14:38:37.576Z,-1.06
2023-01-30T14:41:05.842Z,-0.72
2023-01-30T14:43:43.108Z,-1.07
2023-01-30T14:46:20.568Z,-0.78
2023-01-30T14:48:53.543Z,-0.79
2023-01-30T14:51:48.256Z,-0.81
2023-01-30T14:54:16.893Z,-0.81
2023-01-30T14:57:01.118Z,-0.81
2023-01-30T15:00:03.219Z,-1.07
2023-01-30T15:02:49.196Z,-0.78
2023-01-30T15:05:34.947Z,-0.86
2023-01-30T15:08:17.111Z,-0.73
2023-01-30T15:11:12.619Z,-0.72
2023-01-30T15:13:57.711Z,-0.91
2023-01-30T15:17:34.679Z,-0.82
2023-01-30T15:20:08.689Z,-0.66
2023-01-30T15:23:20.856Z,-0.66
2023-01-30T15:26:10.228Z,-0.66
2023-01-30T15:28:56.599Z,-0.92
2023-01-30T15:31:25.201Z,-0.97
2023-01-30T15:33:57.155Z,-0.93
2023-01-30T15:36:36.668Z,-0.95
2023-01-30T15:39:26.548Z,-0.70
2023-01-30T15:42:08.499Z,-0.67
2023-01-30T15:44:39.401Z,-0.68
2023-01-30T15:47:16.851Z,-1.03
2023-01-30T15:50:01.892Z,-0.64
2023-01-30T15:52:52.010Z,-0.91
2023-01-30T15:55:30.509Z,-0.60
2023-01-30T15:58:19.395Z,-0.67
2023-01-30T16:00:55.873Z,-0.66
2023-01-30T16:03:35.826Z,-0.51
2023-01-30T16:06:05.366Z,-0.48
2023-01-30T16:08:37.209Z,-0.77
2023-01-30T16:11:05.786Z,-0.48
2023-01-30T16:13:35.801Z,-0.48
2023-01-30T16:16:19.140Z,-0.36
2023-01-30T16:18:55.936Z,-0.65
2023-01-30T16:21:50.720Z,-0.61
2023-01-30T16:24:25.255Z,-0.52
2023-01-30T16:27:07.174Z,-0.39
2023-01-30T16:29:53.477Z,-0.53
2023-01-30T16:32:30.925Z,-0.18
2023-01-30T16:35:26.883Z,-0.18
2023-01-30T16:38:00.320Z,-0.17
2023-01-30T16:40:45.381Z,-0.43
2023-01-30T16:43:23.639Z,-0.51
2023-01-30T16:46:27.383Z,-0.11
2023-01-30T16:49:06.580Z,-0.15
2023-01-30T16:51:37.667Z,-0.43
2023-01-30T16:54:16.592Z,-0.37
2023-01-30T16:56:51.688Z,-0.07
2023-01-30T16:59:28.391Z,-0.03
2023-01-30T17:02:00.283Z,-0.09
2023-01-30T17:04:35.920Z,-0.27
2023-01-30T17:07:05.496Z,0.01
2023-01-30T17:09:47.785Z,-0.47
2023-01-30T17:12:30.767Z,0.08
2023-01-30T17:15:15.726Z,0.09
2023-01-30T17:17:45.738Z,0.09
2023-01-30T17:20:20.605Z,0.03
2023-01-30T17:22:58.234Z,0.15
2023-01-30T17:25:39.713Z,0.18
2023-01-30T17:28:21.554Z,0.17
2023-01-30T17:30:52.831Z,0.18
2023-01-30T17:33:21.521Z,-0.09
2023-01-30T17:35:50.837Z,0.17
2023-01-30T17:38:20.592Z,-0.16
2023-01-30T17:40:50.438Z,0.17
2023-01-30T17:43:19.389Z,0.29
2023-01-30T17:45:50.853Z,0.31
2023-01-30T17:48:19.721Z,0.30
2023-01-30T17:50:48.641Z,0.05
2023-01-30T17:53:17.585Z,0.34
2023-01-30T17:55:46.896Z,0.03
2023-01-30T17:58:18.351Z,0.39
2023-01-30T18:00:47.092Z,0.32
2023-01-30T18:03:15.597Z,0.11
2023-01-30T18:05:44.606Z,-0.09
2023-01-30T18:08:14.492Z,0.25
2023-01-30T18:10:43.189Z,0.49
2023-01-30T18:13:11.876Z,0.42
2023-01-30T18:15:41.093Z,0.41
2023-01-30T18:18:16.584Z,0.45
2023-01-30T18:20:46.314Z,0.51
2023-01-30T18:23:16.762Z,0.49
2023-01-30T18:25:45.566Z,0.47
2023-01-30T18:28:14.108Z,0.16
2023-01-30T18:30:42.747Z,0.56
2023-01-30T18:33:12.215Z,0.51
2023-01-30T18:35:42.297Z,0.56
2023-01-30T18:38:11.906Z,0.09
2023-01-30T18:40:41.580Z,0.14
2023-01-30T18:43:10.709Z,0.54
2023-01-30T18:45:39.749Z,0.27
2023-01-30T18:48:09.344Z,0.51
2023-01-30T18:50:42.182Z,0.64
2023-01-30T18:53:12.616Z,0.64
2023-01-30T18:55:51.014Z,0.66
2023-01-30T18:58:26.016Z,0.65
2023-01-30T19:00:58.928Z,0.64
2023-01-30T19:03:29.257Z,0.40
2023-01-30T19:06:02.677Z,0.35
2023-01-30T19:08:32.608Z,0.63
2023-01-30T19:11:41.976Z,0.63
2023-01-30T19:14:12.187Z,0.61
2023-01-30T19:16:42.549Z,0.62
2023-01-30T19:19:12.054Z,0.60
2023-01-30T19:21:42.546Z,0.59
2023-01-30T19:24:17.173Z,0.40
2023-01-30T19:26:48.444Z,0.38
2023-01-30T19:29:19.554Z,0.63
2023-01-30T19:31:49.781Z,0.73
2023-01-30T19:34:20.905Z,0.72
2023-01-30T19:36:50.577Z,0.71
2023-01-30T19:39:20.111Z,0.68
2023-01-30T19:41:49.471Z,0.72
2023-01-30T19:44:19.075Z,0.70
2023-01-30T19:46:50.212Z,0.67
2023-01-30T19:49:20.662Z,0.71
2023-01-30T19:51:52.700Z,0.68
2023-01-30T19:54:23.782Z,0.55
2023-01-30T19:56:53.572Z,0.68
2023-01-30T19:59:23.959Z,0.68
2023-01-30T20:01:55.181Z,0.59
2023-01-30T20:04:24.272Z,0.58
2023-01-30T20:06:52.475Z,0.54
2023-01-30T20:09:30.560Z,0.16
2023-01-30T20:12:05.512Z,0.50
2023-01-30T20:14:38.965Z,0.50
2023-01-30T20:17:08.351Z,0.52
2023-01-30T20:19:37.899Z,0.57
2023-01-30T20:22:09.234Z,0.49
2023-01-30T20:24:38.973Z,0.53
2023-01-30T20:27:11.056Z,0.55
2023-01-30T20:29:40.299Z,0.61
2023-01-30T20:32:09.473Z,0.42
2023-01-30T20:34:38.606Z,0.25
2023-01-30T20:37:06.956Z,0.54
2023-01-30T20:39:35.427Z,0.58
2023-01-30T20:42:04.531Z,0.32
2023-01-30T20:44:36.190Z,0.63
2023-01-30T20:47:04.637Z,0.59
2023-01-30T20:49:33.195Z,0.11
2023-01-30T20:52:01.567Z,0.36
2023-01-30T20:54:29.723Z,0.68
2023-01-30T20:56:58.570Z,0.48
2023-01-30T20:59:28.935Z,0.41
2023-01-30T21:01:57.420Z,0.79
2023-01-30T21:04:29.309Z,0.86
2023-01-30T21:06:57.793Z,0.87
2023-01-30T21:09:26.227Z,0.85
2023-01-30T21:11:55.662Z,0.64
2023-01-30T21:14:26.526Z,0.91
2023-01-30T21:16:55.649Z,0.87
2023-01-30T21:19:24.276Z,0.88
2023-01-30T21:21:55.329Z,0.54
2023-01-30T21:24:28.104Z,0.76
2023-01-30T21:26:57.407Z,0.88
2023-01-30T21:29:28.751Z,0.90
2023-01-30T21:31:58.759Z,0.93
2023-01-30T21:34:27.129Z,0.92
2023-01-30T21:37:15.762Z,0.89
2023-01-30T21:40:04.304Z,0.86
2023-01-30T21:42:51.213Z,0.80
2023-01-30T21:45:21.356Z,0.85
2023-01-30T21:47:54.380Z,0.52
2023-01-30T21:50:22.685Z,0.69
2023-01-30T21:52:50.681Z,0.88
2023-01-30T21:55:19.213Z,0.87
2023-01-30T21:57:47.541Z,0.88
2023-01-30T22:00:15.917Z,0.57
2023-01-30T22:02:44.423Z,0.70
2023-01-30T22:05:13.098Z,0.85
2023-01-30T22:07:41.339Z,0.51
2023-01-30T22:10:10.571Z,0.79
2023-01-30T22:12:40.339Z,0.80
2023-01-30T22:15:10.079Z,0.86
2023-01-30T22:17:38.658Z,0.73
2023-01-30T22:20:10.407Z,0.59
2023-01-30T22:22:38.686Z,0.54
2023-01-30T22:25:08.084Z,0.50
2023-01-30T22:27:38.508Z,0.74
2023-01-30T22:30:07.918Z,0.65
2023-01-30T22:32:38.335Z,0.50
2023-01-30T22:35:09.825Z,0.25
2023-01-30T22:37:38.724Z,-0.54
2023-01-30T22:40:08.399Z,0.48
2023-01-30T22:42:37.374Z,0.46
2023-01-30T22:45:06.556Z,0.47
2023-01-30T22:47:34.671Z,0.26
2023-01-30T22:50:04.539Z,0.16
2023-01-30T22:52:33.413Z,0.51
2023-01-30T22:55:02.632Z,0.54
2023-01-30T22:57:31.563Z,0.32
2023-01-30T23:00:01.577Z,0.57
2023-01-30T23:02:31.452Z,0.54
2023-01-30T23:05:03.907Z,0.58
2023-01-30T23:07:34.788Z,0.50
2023-01-30T23:10:04.538Z,0.59
2023-01-30T23:12:50.939Z,0.53
2023-01-30T23:15:20.615Z,0.04
2023-01-30T23:18:07.808Z,0.54
2023-01-30T23:20:36.690Z,0.06
2023-01-30T23:23:07.241Z,0.49
2023-01-30T23:25:41.328Z,0.52
2023-01-30T23:28:09.983Z,0.56
2023-01-30T23:30:39.321Z,0.26
2023-01-30T23:33:07.996Z,0.42
2023-01-30T23:35:36.629Z,0.65
2023-01-30T23:38:16.903Z,0.63
2023-01-30T23:40:49.195Z,0.68
2023-01-30T23:43:17.528Z,0.54
2023-01-30T23:45:45.873Z,0.45
2023-01-30T23:48:14.163Z,0.73
2023-01-30T23:50:42.308Z,0.58
2023-01-30T23:53:10.919Z,0.75
2023-01-30T23:55:38.850Z,0.76
2023-01-30T23:58:06.910Z,0.73
